sensor_id;sensor_type;location;lat;lon;timestamp;pressure;altitude;pressure_sealevel;temperature;humidity
34081;BME280;20358;50.272;19.026;2023-04-28T00:01:43;98681.88;;;5.13;49.32
34081;BME280;20358;50.272;19.026;2023-04-28T00:04:49;98688.88;;;5.12;49.46
34081;BME280;20358;50.272;19.026;2023-04-28T00:07:59;98681.25;;;5.08;49.93
34081;BME280;20358;50.272;19.026;2023-04-28T00:11:08;98686.84;;;5.00;50.03
34081;BME280;20358;50.272;19.026;2023-04-28T00:14:15;98679.50;;;4.89;50.09
34081;BME280;20358;50.272;19.026;2023-04-28T00:17:20;98685.44;;;4.93;50.36
34081;BME280;20358;50.272;19.026;2023-04-28T00:20:27;98682.81;;;4.93;50.08
34081;BME280;20358;50.272;19.026;2023-04-28T00:23:35;98685.44;;;4.93;49.93
34081;BME280;20358;50.272;19.026;2023-04-28T00:26:42;98677.78;;;4.88;50.16
34081;BME280;20358;50.272;19.026;2023-04-28T00:29:47;98685.28;;;4.96;50.04
34081;BME280;20358;50.272;19.026;2023-04-28T00:32:55;98683.47;;;4.98;49.15
34081;BME280;20358;50.272;19.026;2023-04-28T00:36:01;98678.91;;;5.02;49.65
34081;BME280;20358;50.272;19.026;2023-04-28T00:39:10;98678.69;;;5.06;49.79
34081;BME280;20358;50.272;19.026;2023-04-28T00:42:16;98682.88;;;5.10;49.63
34081;BME280;20358;50.272;19.026;2023-04-28T00:45:22;98676.66;;;5.13;49.32
34081;BME280;20358;50.272;19.026;2023-04-28T00:48:28;98691.50;;;5.12;49.59
34081;BME280;20358;50.272;19.026;2023-04-28T00:51:34;98690.59;;;5.13;49.92
34081;BME280;20358;50.272;19.026;2023-04-28T00:54:43;98682.75;;;5.13;49.90
34081;BME280;20358;50.272;19.026;2023-04-28T00:57:50;98660.53;;;5.03;50.02
34081;BME280;20358;50.272;19.026;2023-04-28T01:01:01;98683.03;;;5.07;49.95
34081;BME280;20358;50.272;19.026;2023-04-28T01:04:09;98680.50;;;5.06;49.52
34081;BME280;20358;50.272;19.026;2023-04-28T01:07:16;98683.16;;;5.04;49.95
34081;BME280;20358;50.272;19.026;2023-04-28T01:10:25;98679.78;;;5.02;49.74
34081;BME280;20358;50.272;19.026;2023-04-28T01:13:36;98682.81;;;4.93;49.75
34081;BME280;20358;50.272;19.026;2023-04-28T01:16:43;98682.25;;;4.86;50.00
34081;BME280;20358;50.272;19.026;2023-04-28T01:19:50;98682.59;;;4.79;50.66
34081;BME280;20358;50.272;19.026;2023-04-28T01:22:57;98679.22;;;4.77;51.17
34081;BME280;20358;50.272;19.026;2023-04-28T01:26:06;98680.34;;;4.71;51.41
34081;BME280;20358;50.272;19.026;2023-04-28T01:29:12;98675.50;;;4.62;51.05
34081;BME280;20358;50.272;19.026;2023-04-28T01:32:18;98675.94;;;4.53;51.61
34081;BME280;20358;50.272;19.026;2023-04-28T01:35:24;98668.44;;;4.46;51.23
34081;BME280;20358;50.272;19.026;2023-04-28T01:38:30;98674.66;;;4.43;51.56
34081;BME280;20358;50.272;19.026;2023-04-28T01:41:39;98678.19;;;4.42;51.82
34081;BME280;20358;50.272;19.026;2023-04-28T01:44:46;98675.78;;;4.38;51.95
34081;BME280;20358;50.272;19.026;2023-04-28T01:47:51;98670.81;;;4.32;52.36
34081;BME280;20358;50.272;19.026;2023-04-28T01:50:58;98676.31;;;4.25;52.28
34081;BME280;20358;50.272;19.026;2023-04-28T01:54:04;98680.91;;;4.20;52.85
34081;BME280;20358;50.272;19.026;2023-04-28T01:57:13;98681.94;;;4.16;52.07
34081;BME280;20358;50.272;19.026;2023-04-28T02:00:21;98685.75;;;4.09;52.60
34081;BME280;20358;50.272;19.026;2023-04-28T02:03:29;98684.16;;;4.05;52.32
34081;BME280;20358;50.272;19.026;2023-04-28T02:06:36;98676.47;;;4.02;51.97
34081;BME280;20358;50.272;19.026;2023-04-28T02:09:43;98684.44;;;3.99;52.04
34081;BME280;20358;50.272;19.026;2023-04-28T02:12:51;98682.72;;;3.98;52.84
34081;BME280;20358;50.272;19.026;2023-04-28T02:15:59;98674.97;;;3.97;53.52
34081;BME280;20358;50.272;19.026;2023-04-28T02:19:05;98672.53;;;3.92;52.96
34081;BME280;20358;50.272;19.026;2023-04-28T02:22:12;98669.38;;;3.84;52.62
34081;BME280;20358;50.272;19.026;2023-04-28T02:25:18;98667.81;;;3.80;53.64
34081;BME280;20358;50.272;19.026;2023-04-28T02:28:27;98664.41;;;3.78;52.76
34081;BME280;20358;50.272;19.026;2023-04-28T02:31:33;98673.03;;;3.80;53.41
34081;BME280;20358;50.272;19.026;2023-04-28T02:34:40;98651.72;;;3.69;53.29
34081;BME280;20358;50.272;19.026;2023-04-28T02:37:46;98664.34;;;3.80;53.73
34081;BME280;20358;50.272;19.026;2023-04-28T02:40:57;98656.69;;;3.75;53.99
34081;BME280;20358;50.272;19.026;2023-04-28T02:44:06;98662.97;;;3.71;53.34
34081;BME280;20358;50.272;19.026;2023-04-28T02:47:13;98655.25;;;3.68;52.97
34081;BME280;20358;50.272;19.026;2023-04-28T02:50:19;98652.91;;;3.62;53.22
34081;BME280;20358;50.272;19.026;2023-04-28T02:53:25;98659.94;;;3.60;53.43
34081;BME280;20358;50.272;19.026;2023-04-28T02:56:32;98661.78;;;3.58;53.17
34081;BME280;20358;50.272;19.026;2023-04-28T02:59:42;98660.19;;;3.54;53.85
34081;BME280;20358;50.272;19.026;2023-04-28T03:02:48;98656.94;;;3.49;53.28
34081;BME280;20358;50.272;19.026;2023-04-28T03:05:54;98651.94;;;3.43;53.62
34081;BME280;20358;50.272;19.026;2023-04-28T03:09:00;98644.31;;;3.38;54.50
34081;BME280;20358;50.272;19.026;2023-04-28T03:12:08;98642.00;;;3.31;54.47
34081;BME280;20358;50.272;19.026;2023-04-28T03:15:16;98645.00;;;3.22;53.95
34081;BME280;20358;50.272;19.026;2023-04-28T03:18:23;98649.56;;;3.17;53.35
34081;BME280;20358;50.272;19.026;2023-04-28T03:21:29;98647.94;;;3.14;54.69
34081;BME280;20358;50.272;19.026;2023-04-28T03:24:36;98647.97;;;3.13;54.13
34081;BME280;20358;50.272;19.026;2023-04-28T03:27:41;98651.47;;;3.12;54.59
34081;BME280;20358;50.272;19.026;2023-04-28T03:30:51;98649.91;;;3.07;53.67
34081;BME280;20358;50.272;19.026;2023-04-28T03:33:56;98648.34;;;3.03;54.52
34081;BME280;20358;50.272;19.026;2023-04-28T03:37:03;98642.41;;;3.00;53.73
34081;BME280;20358;50.272;19.026;2023-04-28T03:40:10;98645.19;;;2.95;54.76
34081;BME280;20358;50.272;19.026;2023-04-28T03:43:34;98645.31;;;2.92;54.42
34081;BME280;20358;50.272;19.026;2023-04-28T03:46:59;98643.59;;;2.91;53.59
34081;BME280;20358;50.272;19.026;2023-04-28T03:50:07;98641.97;;;2.89;54.94
34081;BME280;20358;50.272;19.026;2023-04-28T03:53:13;98641.91;;;2.90;54.34
34081;BME280;20358;50.272;19.026;2023-04-28T03:56:19;98637.53;;;2.91;54.94
34081;BME280;20358;50.272;19.026;2023-04-28T03:59:25;98637.59;;;2.89;54.96
34081;BME280;20358;50.272;19.026;2023-04-28T04:02:35;98648.13;;;2.86;54.02
34081;BME280;20358;50.272;19.026;2023-04-28T04:05:41;98643.84;;;2.85;54.68
34081;BME280;20358;50.272;19.026;2023-04-28T04:08:48;98640.19;;;2.89;53.39
34081;BME280;20358;50.272;19.026;2023-04-28T04:11:54;98640.09;;;2.92;54.45
34081;BME280;20358;50.272;19.026;2023-04-28T04:15:01;98651.97;;;2.99;53.70
34081;BME280;20358;50.272;19.026;2023-04-28T04:18:09;98649.91;;;3.07;53.95
34081;BME280;20358;50.272;19.026;2023-04-28T04:21:35;98656.84;;;3.09;53.20
34081;BME280;20358;50.272;19.026;2023-04-28T04:24:41;98660.00;;;3.17;54.03
34081;BME280;20358;50.272;19.026;2023-04-28T04:27:49;98663.28;;;3.22;52.90
34081;BME280;20358;50.272;19.026;2023-04-28T04:30:54;98666.41;;;3.30;53.90
34081;BME280;20358;50.272;19.026;2023-04-28T04:34:04;98669.44;;;3.41;52.37
34081;BME280;20358;50.272;19.026;2023-04-28T04:37:10;98667.25;;;3.52;52.21
34081;BME280;20358;50.272;19.026;2023-04-28T04:40:26;98665.06;;;3.63;52.59
34081;BME280;20358;50.272;19.026;2023-04-28T04:43:33;98668.03;;;3.74;52.22
34081;BME280;20358;50.272;19.026;2023-04-28T04:46:39;98664.91;;;3.88;51.83
34081;BME280;20358;50.272;19.026;2023-04-28T04:49:48;98670.44;;;4.00;51.59
34081;BME280;20358;50.272;19.026;2023-04-28T04:52:55;98668.22;;;4.11;51.00
34081;BME280;20358;50.272;19.026;2023-04-28T04:56:01;98663.31;;;4.24;50.00
34081;BME280;20358;50.272;19.026;2023-04-28T04:59:10;98664.59;;;4.34;50.28
34081;BME280;20358;50.272;19.026;2023-04-28T05:03:08;98663.34;;;4.43;49.35
34081;BME280;20358;50.272;19.026;2023-04-28T05:06:20;98663.84;;;4.51;49.63
34081;BME280;20358;50.272;19.026;2023-04-28T05:09:26;98670.38;;;4.61;48.99
34081;BME280;20358;50.272;19.026;2023-04-28T05:12:34;98666.53;;;4.68;48.85
34081;BME280;20358;50.272;19.026;2023-04-28T05:15:40;98663.38;;;4.80;49.21
34081;BME280;20358;50.272;19.026;2023-04-28T05:18:58;98669.56;;;4.96;48.71
34081;BME280;20358;50.272;19.026;2023-04-28T05:22:07;98669.50;;;5.16;48.17
34081;BME280;20358;50.272;19.026;2023-04-28T05:25:14;98671.06;;;5.37;47.85
34081;BME280;20358;50.272;19.026;2023-04-28T05:28:23;98666.69;;;5.57;47.96
34081;BME280;20358;50.272;19.026;2023-04-28T05:31:30;98657.66;;;5.79;46.84
34081;BME280;20358;50.272;19.026;2023-04-28T05:34:36;98662.69;;;6.01;46.46
34081;BME280;20358;50.272;19.026;2023-04-28T05:37:46;98654.78;;;6.18;45.74
34081;BME280;20358;50.272;19.026;2023-04-28T05:40:51;98669.09;;;6.28;45.62
34081;BME280;20358;50.272;19.026;2023-04-28T05:43:58;98660.13;;;6.49;46.05
34081;BME280;20358;50.272;19.026;2023-04-28T05:47:04;98659.97;;;6.68;45.01
34081;BME280;20358;50.272;19.026;2023-04-28T05:50:10;98668.50;;;6.89;44.83
34081;BME280;20358;50.272;19.026;2023-04-28T05:53:20;98662.41;;;7.04;44.23
34081;BME280;20358;50.272;19.026;2023-04-28T05:56:27;98666.81;;;7.19;44.71
34081;BME280;20358;50.272;19.026;2023-04-28T05:59:34;98522.84;;;6.49;44.05
34081;BME280;20358;50.272;19.026;2023-04-28T06:02:40;98661.88;;;7.44;43.28
34081;BME280;20358;50.272;19.026;2023-04-28T06:05:46;98654.22;;;7.55;43.50
34081;BME280;20358;50.272;19.026;2023-04-28T06:08:56;98651.81;;;7.66;42.88
34081;BME280;20358;50.272;19.026;2023-04-28T06:12:02;98663.31;;;7.79;42.43
34081;BME280;20358;50.272;19.026;2023-04-28T06:15:10;98670.09;;;7.83;42.35
34081;BME280;20358;50.272;19.026;2023-04-28T06:18:16;98667.31;;;8.00;41.82
34081;BME280;20358;50.272;19.026;2023-04-28T06:21:22;98661.19;;;8.16;42.14
34081;BME280;20358;50.272;19.026;2023-04-28T06:24:33;98655.47;;;8.23;40.60
34081;BME280;20358;50.272;19.026;2023-04-28T06:27:44;98655.56;;;8.36;40.69
34081;BME280;20358;50.272;19.026;2023-04-28T06:30:49;98659.31;;;8.46;41.30
34081;BME280;20358;50.272;19.026;2023-04-28T06:33:55;98655.00;;;8.59;40.23
34081;BME280;20358;50.272;19.026;2023-04-28T06:37:02;98657.81;;;8.70;41.12
34081;BME280;20358;50.272;19.026;2023-04-28T06:40:12;98660.81;;;8.78;40.93
34081;BME280;20358;50.272;19.026;2023-04-28T06:43:25;98654.34;;;8.84;40.00
34081;BME280;20358;50.272;19.026;2023-04-28T06:46:41;98659.84;;;8.93;40.36
34081;BME280;20358;50.272;19.026;2023-04-28T06:49:47;98661.94;;;9.02;39.86
34081;BME280;20358;50.272;19.026;2023-04-28T06:52:53;98658.06;;;9.08;39.72
34081;BME280;20358;50.272;19.026;2023-04-28T06:56:06;98657.03;;;9.10;40.52
34081;BME280;20358;50.272;19.026;2023-04-28T06:59:13;98650.63;;;9.00;39.99
34081;BME280;20358;50.272;19.026;2023-04-28T07:02:19;98652.13;;;9.04;40.10
34081;BME280;20358;50.272;19.026;2023-04-28T07:05:26;98651.75;;;9.10;39.47
34081;BME280;20358;50.272;19.026;2023-04-28T07:08:33;98647.81;;;9.17;38.70
34081;BME280;20358;50.272;19.026;2023-04-28T07:11:42;98637.81;;;9.22;39.13
34081;BME280;20358;50.272;19.026;2023-04-28T07:14:48;98620.41;;;9.20;38.49
34081;BME280;20358;50.272;19.026;2023-04-28T07:17:55;98632.91;;;9.31;37.13
34081;BME280;20358;50.272;19.026;2023-04-28T07:21:00;98639.44;;;9.38;36.88
34081;BME280;20358;50.272;19.026;2023-04-28T07:24:07;98631.34;;;9.41;36.69
34081;BME280;20358;50.272;19.026;2023-04-28T07:27:15;98628.50;;;9.44;36.41
34081;BME280;20358;50.272;19.026;2023-04-28T07:30:22;98625.47;;;9.50;35.86
34081;BME280;20358;50.272;19.026;2023-04-28T07:33:29;98624.13;;;9.57;36.11
34081;BME280;20358;50.272;19.026;2023-04-28T07:36:36;98623.94;;;9.60;36.15
34081;BME280;20358;50.272;19.026;2023-04-28T07:39:41;98607.88;;;9.63;35.51
34081;BME280;20358;50.272;19.026;2023-04-28T07:42:51;98615.28;;;9.70;35.91
34081;BME280;20358;50.272;19.026;2023-04-28T07:45:57;98610.06;;;9.83;35.89
34081;BME280;20358;50.272;19.026;2023-04-28T07:49:03;98613.63;;;9.95;35.08
34081;BME280;20358;50.272;19.026;2023-04-28T07:52:09;98613.97;;;10.03;34.93
34081;BME280;20358;50.272;19.026;2023-04-28T07:55:16;98611.78;;;10.09;34.34
34081;BME280;20358;50.272;19.026;2023-04-28T07:58:24;98510.84;;;9.55;33.73
34081;BME280;20358;50.272;19.026;2023-04-28T08:01:31;98605.31;;;10.13;34.11
34081;BME280;20358;50.272;19.026;2023-04-28T08:04:37;98599.72;;;10.18;33.77
34081;BME280;20358;50.272;19.026;2023-04-28T08:07:43;98592.34;;;10.23;33.59
34081;BME280;20358;50.272;19.026;2023-04-28T08:10:49;98595.63;;;10.26;32.97
34081;BME280;20358;50.272;19.026;2023-04-28T08:13:59;98593.41;;;10.33;32.81
34081;BME280;20358;50.272;19.026;2023-04-28T08:17:05;98590.47;;;10.37;32.31
34081;BME280;20358;50.272;19.026;2023-04-28T08:20:12;98584.94;;;10.40;31.61
34081;BME280;20358;50.272;19.026;2023-04-28T08:23:24;98581.56;;;10.38;31.85
34081;BME280;20358;50.272;19.026;2023-04-28T08:26:33;98581.16;;;10.44;31.42
34081;BME280;20358;50.272;19.026;2023-04-28T08:29:42;98583.13;;;10.54;32.00
34081;BME280;20358;50.272;19.026;2023-04-28T08:32:48;98581.00;;;10.59;31.73
34081;BME280;20358;50.272;19.026;2023-04-28T08:35:55;98572.44;;;10.68;31.99
34081;BME280;20358;50.272;19.026;2023-04-28T08:39:01;98565.25;;;10.70;31.34
34081;BME280;20358;50.272;19.026;2023-04-28T08:42:09;98571.03;;;10.75;31.59
34081;BME280;20358;50.272;19.026;2023-04-28T08:45:23;98570.72;;;10.79;31.51
34081;BME280;20358;50.272;19.026;2023-04-28T08:48:38;98563.63;;;10.80;31.21
34081;BME280;20358;50.272;19.026;2023-04-28T08:51:49;98567.97;;;10.81;31.63
34081;BME280;20358;50.272;19.026;2023-04-28T08:55:03;98554.97;;;10.78;31.58
34081;BME280;20358;50.272;19.026;2023-04-28T08:58:12;98567.97;;;10.81;30.72
34081;BME280;20358;50.272;19.026;2023-04-28T09:01:21;98565.44;;;10.79;31.01
34081;BME280;20358;50.272;19.026;2023-04-28T09:04:28;98552.13;;;10.81;31.25
34081;BME280;20358;50.272;19.026;2023-04-28T09:07:34;98558.13;;;10.83;31.38
34081;BME280;20358;50.272;19.026;2023-04-28T09:10:41;98552.41;;;10.89;31.50
34081;BME280;20358;50.272;19.026;2023-04-28T09:13:47;98552.28;;;10.90;31.14
34081;BME280;20358;50.272;19.026;2023-04-28T09:16:56;98525.69;;;10.81;31.20
34081;BME280;20358;50.272;19.026;2023-04-28T09:20:02;98545.72;;;10.96;31.75
34081;BME280;20358;50.272;19.026;2023-04-28T09:23:24;98547.19;;;11.00;31.55
34081;BME280;20358;50.272;19.026;2023-04-28T09:26:47;98540.50;;;11.07;32.12
34081;BME280;20358;50.272;19.026;2023-04-28T09:29:57;98534.63;;;11.15;32.41
34081;BME280;20358;50.272;19.026;2023-04-28T09:33:06;98541.28;;;11.20;32.18
34081;BME280;20358;50.272;19.026;2023-04-28T09:36:25;98537.97;;;11.29;31.90
34081;BME280;20358;50.272;19.026;2023-04-28T09:39:32;98523.81;;;11.30;32.31
34081;BME280;20358;50.272;19.026;2023-04-28T09:42:43;98518.97;;;11.24;32.11
34081;BME280;20358;50.272;19.026;2023-04-28T09:45:49;98524.69;;;11.18;32.74
34081;BME280;20358;50.272;19.026;2023-04-28T09:49:02;98522.78;;;11.20;32.64
34081;BME280;20358;50.272;19.026;2023-04-28T09:52:11;98507.31;;;11.27;32.69
34081;BME280;20358;50.272;19.026;2023-04-28T09:55:18;98509.59;;;11.31;32.96
34081;BME280;20358;50.272;19.026;2023-04-28T09:58:27;98512.25;;;11.31;32.46
34081;BME280;20358;50.272;19.026;2023-04-28T10:01:37;98469.59;;;11.01;32.47
34081;BME280;20358;50.272;19.026;2023-04-28T10:04:49;98483.13;;;11.20;32.86
34081;BME280;20358;50.272;19.026;2023-04-28T10:07:56;98491.59;;;11.25;32.52
34081;BME280;20358;50.272;19.026;2023-04-28T10:11:03;98491.84;;;11.33;32.85
34081;BME280;20358;50.272;19.026;2023-04-28T10:14:10;98487.41;;;11.45;32.88
34081;BME280;20358;50.272;19.026;2023-04-28T10:17:17;98483.13;;;11.55;32.14
34081;BME280;20358;50.272;19.026;2023-04-28T10:20:29;98477.84;;;11.66;32.03
34081;BME280;20358;50.272;19.026;2023-04-28T10:24:08;98465.00;;;11.84;31.88
34081;BME280;20358;50.272;19.026;2023-04-28T10:27:26;98474.13;;;12.02;31.87
34081;BME280;20358;50.272;19.026;2023-04-28T10:30:35;98475.03;;;12.24;31.45
34081;BME280;20358;50.272;19.026;2023-04-28T10:33:41;98470.16;;;12.41;30.85
34081;BME280;20358;50.272;19.026;2023-04-28T10:36:51;98455.09;;;12.63;30.76
34081;BME280;20358;50.272;19.026;2023-04-28T10:40:30;98445.88;;;12.78;31.27
34081;BME280;20358;50.272;19.026;2023-04-28T10:43:38;98447.53;;;12.90;30.78
34081;BME280;20358;50.272;19.026;2023-04-28T10:46:59;98442.63;;;13.07;30.88
34081;BME280;20358;50.272;19.026;2023-04-28T10:50:09;98389.41;;;12.99;30.66
34081;BME280;20358;50.272;19.026;2023-04-28T10:53:18;98429.03;;;13.32;30.37
34081;BME280;20358;50.272;19.026;2023-04-28T10:56:25;98417.47;;;13.33;30.57
34081;BME280;20358;50.272;19.026;2023-04-28T10:59:32;98416.47;;;13.34;29.96
34081;BME280;20358;50.272;19.026;2023-04-28T11:02:39;98419.84;;;13.36;30.13
34081;BME280;20358;50.272;19.026;2023-04-28T11:06:16;98403.94;;;13.36;30.53
34081;BME280;20358;50.272;19.026;2023-04-28T11:09:49;98408.00;;;13.40;29.96
34081;BME280;20358;50.272;19.026;2023-04-28T11:13:25;98405.53;;;13.48;29.87
34081;BME280;20358;50.272;19.026;2023-04-28T11:16:47;98410.31;;;13.54;30.13
34081;BME280;20358;50.272;19.026;2023-04-28T11:19:58;98400.22;;;13.48;29.83
34081;BME280;20358;50.272;19.026;2023-04-28T11:23:07;98396.03;;;13.45;30.02
34081;BME280;20358;50.272;19.026;2023-04-28T11:26:19;98382.88;;;13.44;29.70
34081;BME280;20358;50.272;19.026;2023-04-28T11:29:32;98393.97;;;13.49;30.44
34081;BME280;20358;50.272;19.026;2023-04-28T11:32:40;98385.19;;;13.58;29.49
34081;BME280;20358;50.272;19.026;2023-04-28T11:35:46;98374.59;;;13.58;30.09
34081;BME280;20358;50.272;19.026;2023-04-28T11:38:53;98377.41;;;13.66;29.46
34081;BME280;20358;50.272;19.026;2023-04-28T11:42:09;98382.72;;;13.66;29.44
34081;BME280;20358;50.272;19.026;2023-04-28T11:45:16;98376.31;;;13.69;28.89
34081;BME280;20358;50.272;19.026;2023-04-28T11:48:22;98370.31;;;13.67;29.13
34081;BME280;20358;50.272;19.026;2023-04-28T11:51:34;98345.25;;;13.60;29.07
34081;BME280;20358;50.272;19.026;2023-04-28T11:54:43;98376.59;;;13.75;29.64
34081;BME280;20358;50.272;19.026;2023-04-28T11:58:19;98364.88;;;13.78;28.85
34081;BME280;20358;50.272;19.026;2023-04-28T12:01:26;98369.03;;;13.71;28.77
34081;BME280;20358;50.272;19.026;2023-04-28T12:04:34;98339.38;;;13.56;28.77
34081;BME280;20358;50.272;19.026;2023-04-28T12:07:42;98352.28;;;13.40;28.48
34081;BME280;20358;50.272;19.026;2023-04-28T12:11:07;98358.84;;;13.36;28.57
34081;BME280;20358;50.272;19.026;2023-04-28T12:14:18;98355.78;;;13.40;28.91
34081;BME280;20358;50.272;19.026;2023-04-28T12:17:25;98341.28;;;13.44;28.77
34081;BME280;20358;50.272;19.026;2023-04-28T12:20:36;98334.34;;;13.53;29.23
34081;BME280;20358;50.272;19.026;2023-04-28T12:23:44;98333.50;;;13.53;29.06
34081;BME280;20358;50.272;19.026;2023-04-28T12:26:50;98318.72;;;13.60;29.02
34081;BME280;20358;50.272;19.026;2023-04-28T12:30:00;98332.75;;;13.71;29.03
34081;BME280;20358;50.272;19.026;2023-04-28T12:33:20;98330.69;;;13.84;29.31
34081;BME280;20358;50.272;19.026;2023-04-28T12:36:29;98328.03;;;13.84;28.63
34081;BME280;20358;50.272;19.026;2023-04-28T12:39:35;98298.38;;;13.70;28.48
34081;BME280;20358;50.272;19.026;2023-04-28T12:42:45;98310.28;;;13.85;29.08
34081;BME280;20358;50.272;19.026;2023-04-28T12:45:54;98300.69;;;13.93;28.67
34081;BME280;20358;50.272;19.026;2023-04-28T12:49:01;98295.69;;;14.00;28.58
34081;BME280;20358;50.272;19.026;2023-04-28T12:52:06;98293.72;;;14.11;29.39
34081;BME280;20358;50.272;19.026;2023-04-28T12:55:13;98296.25;;;14.23;28.91
34081;BME280;20358;50.272;19.026;2023-04-28T12:58:18;98295.44;;;14.32;28.72
34081;BME280;20358;50.272;19.026;2023-04-28T13:01:28;98282.59;;;14.37;28.51
34081;BME280;20358;50.272;19.026;2023-04-28T13:04:34;98285.22;;;14.46;28.54
34081;BME280;20358;50.272;19.026;2023-04-28T13:07:41;98281.44;;;14.58;28.07
34081;BME280;20358;50.272;19.026;2023-04-28T13:10:47;98273.06;;;14.63;28.16
34081;BME280;20358;50.272;19.026;2023-04-28T13:13:53;98273.59;;;14.66;28.45
34081;BME280;20358;50.272;19.026;2023-04-28T13:17:02;98274.44;;;14.67;27.59
34081;BME280;20358;50.272;19.026;2023-04-28T13:20:10;98262.72;;;14.60;27.96
34081;BME280;20358;50.272;19.026;2023-04-28T13:23:16;98257.69;;;14.57;28.14
34081;BME280;20358;50.272;19.026;2023-04-28T13:26:23;98257.69;;;14.57;27.62
34081;BME280;20358;50.272;19.026;2023-04-28T13:29:29;98256.56;;;14.59;28.26
34081;BME280;20358;50.272;19.026;2023-04-28T13:32:38;98245.50;;;14.64;28.40
34081;BME280;20358;50.272;19.026;2023-04-28T13:35:44;98244.53;;;14.65;28.35
34081;BME280;20358;50.272;19.026;2023-04-28T13:38:51;98244.78;;;14.71;27.80
34081;BME280;20358;50.272;19.026;2023-04-28T13:41:57;98251.78;;;14.82;28.12
34081;BME280;20358;50.272;19.026;2023-04-28T13:45:04;98245.63;;;14.91;27.50
34081;BME280;20358;50.272;19.026;2023-04-28T13:48:13;98235.22;;;14.98;27.62
34081;BME280;20358;50.272;19.026;2023-04-28T13:51:20;98239.97;;;15.04;27.32
34081;BME280;20358;50.272;19.026;2023-04-28T13:54:26;98228.22;;;15.06;27.99
34081;BME280;20358;50.272;19.026;2023-04-28T13:57:33;98228.34;;;15.05;27.74
34081;BME280;20358;50.272;19.026;2023-04-28T14:00:38;98218.41;;;15.07;27.93
34081;BME280;20358;50.272;19.026;2023-04-28T14:03:48;98223.97;;;15.13;27.68
34081;BME280;20358;50.272;19.026;2023-04-28T14:06:54;98222.50;;;15.28;27.55
34081;BME280;20358;50.272;19.026;2023-04-28T14:10:01;98221.91;;;15.34;27.72
34081;BME280;20358;50.272;19.026;2023-04-28T14:13:07;98209.31;;;15.37;27.03
34081;BME280;20358;50.272;19.026;2023-04-28T14:16:14;98214.03;;;15.43;27.10
34081;BME280;20358;50.272;19.026;2023-04-28T14:19:22;98200.34;;;15.38;26.48
34081;BME280;20358;50.272;19.026;2023-04-28T14:22:30;98205.66;;;15.38;26.48
34081;BME280;20358;50.272;19.026;2023-04-28T14:25:36;98207.88;;;15.42;26.90
34081;BME280;20358;50.272;19.026;2023-04-28T14:28:44;98201.13;;;15.48;26.99
34081;BME280;20358;50.272;19.026;2023-04-28T14:31:50;98198.75;;;15.45;26.99
34081;BME280;20358;50.272;19.026;2023-04-28T14:34:59;98194.13;;;15.47;27.55
34081;BME280;20358;50.272;19.026;2023-04-28T14:38:09;98189.31;;;15.60;27.51
34081;BME280;20358;50.272;19.026;2023-04-28T14:41:15;98193.44;;;15.72;26.99
34081;BME280;20358;50.272;19.026;2023-04-28T14:44:22;98190.34;;;15.76;27.23
34081;BME280;20358;50.272;19.026;2023-04-28T14:47:33;98185.84;;;15.77;27.14
34081;BME280;20358;50.272;19.026;2023-04-28T14:50:42;98190.25;;;15.86;27.68
34081;BME280;20358;50.272;19.026;2023-04-28T14:53:49;98177.63;;;15.88;27.28
34081;BME280;20358;50.272;19.026;2023-04-28T14:56:55;98196.41;;;16.04;27.04
34081;BME280;20358;50.272;19.026;2023-04-28T15:00:03;98195.75;;;16.02;26.84
34081;BME280;20358;50.272;19.026;2023-04-28T15:03:10;98182.66;;;15.91;27.15
34081;BME280;20358;50.272;19.026;2023-04-28T15:06:20;98189.66;;;15.92;27.60
34081;BME280;20358;50.272;19.026;2023-04-28T15:09:27;98185.31;;;15.91;27.45
34081;BME280;20358;50.272;19.026;2023-04-28T15:12:33;98187.97;;;15.91;27.04
34081;BME280;20358;50.272;19.026;2023-04-28T15:15:39;98185.00;;;15.94;27.09
34081;BME280;20358;50.272;19.026;2023-04-28T15:18:46;98164.25;;;15.80;27.18
34081;BME280;20358;50.272;19.026;2023-04-28T15:21:54;98172.66;;;15.75;27.09
34081;BME280;20358;50.272;19.026;2023-04-28T15:25:01;98168.34;;;15.74;27.53
34081;BME280;20358;50.272;19.026;2023-04-28T15:28:07;98170.47;;;15.71;27.55
34081;BME280;20358;50.272;19.026;2023-04-28T15:31:13;98171.81;;;15.75;27.63
34081;BME280;20358;50.272;19.026;2023-04-28T15:34:19;98167.13;;;15.86;28.22
34081;BME280;20358;50.272;19.026;2023-04-28T15:37:48;98157.31;;;16.05;27.59
34081;BME280;20358;50.272;19.026;2023-04-28T15:40:56;98157.91;;;16.16;27.33
34081;BME280;20358;50.272;19.026;2023-04-28T15:44:03;98154.63;;;16.22;27.22
34081;BME280;20358;50.272;19.026;2023-04-28T15:47:09;98149.34;;;16.30;27.64
34081;BME280;20358;50.272;19.026;2023-04-28T15:50:15;98142.13;;;16.40;27.42
34081;BME280;20358;50.272;19.026;2023-04-28T15:53:24;98140.78;;;16.36;27.32
34081;BME280;20358;50.272;19.026;2023-04-28T15:56:31;98125.97;;;16.24;27.22
34081;BME280;20358;50.272;19.026;2023-04-28T15:59:38;98138.13;;;16.36;27.26
34081;BME280;20358;50.272;19.026;2023-04-28T16:02:44;98140.47;;;16.39;27.03
34081;BME280;20358;50.272;19.026;2023-04-28T16:05:52;98129.28;;;16.36;27.19
34081;BME280;20358;50.272;19.026;2023-04-28T16:09:02;98131.31;;;16.24;26.76
34081;BME280;20358;50.272;19.026;2023-04-28T16:12:08;98127.53;;;16.09;27.57
34081;BME280;20358;50.272;19.026;2023-04-28T16:15:15;98125.03;;;16.08;27.88
34081;BME280;20358;50.272;19.026;2023-04-28T16:18:20;98124.19;;;16.07;28.12
34081;BME280;20358;50.272;19.026;2023-04-28T16:21:27;98132.88;;;16.09;27.44
34081;BME280;20358;50.272;19.026;2023-04-28T16:24:37;98135.22;;;16.12;27.89
34081;BME280;20358;50.272;19.026;2023-04-28T16:27:46;98122.16;;;15.83;27.51
34081;BME280;20358;50.272;19.026;2023-04-28T16:30:52;98124.34;;;15.88;27.75
34081;BME280;20358;50.272;19.026;2023-04-28T16:33:59;98114.47;;;15.98;27.66